createdAt,value
2022-11-27T00:04:45.747Z,1031.14
2022-11-27T00:20:01.723Z,1031
2022-11-27T00:35:18.715Z,1030.75
2022-11-27T00:50:34.652Z,1030.69
2022-11-27T01:05:51.579Z,1030.67
2022-11-27T01:21:08.592Z,1030.23
2022-11-27T01:36:25.552Z,1030.26
2022-11-27T01:51:41.540Z,1030.28
2022-11-27T02:06:57.500Z,1030.26
2022-11-27T02:22:13.464Z,1030.28
2022-11-27T02:37:32.467Z,1030.23
2022-11-27T02:52:48.387Z,1030.12
2022-11-27T03:08:04.390Z,1030.06
2022-11-27T03:23:20.308Z,1030.25
2022-11-27T03:38:38.327Z,1030.39
2022-11-27T03:53:55.247Z,1030.36
2022-11-27T04:09:11.265Z,1030.39
2022-11-27T04:24:27.186Z,1030.25
2022-11-27T04:39:44.204Z,1030.06
2022-11-27T04:55:00.656Z,1030.17
2022-11-27T05:10:16.151Z,1030.15
2022-11-27T05:25:33.088Z,1030.47
2022-11-27T05:40:51.089Z,1030.5
2022-11-27T05:56:08.016Z,1030.37
2022-11-27T06:11:24.021Z,1030.12
2022-11-27T06:26:39.946Z,1029.87
2022-11-27T06:41:56.953Z,1029.93
2022-11-27T06:57:12.888Z,1029.85
2022-11-27T07:12:28.871Z,1029.76
2022-11-27T07:27:46.926Z,1029.87
2022-11-27T07:43:03.801Z,1029.79
2022-11-27T07:58:20.801Z,1029.68
2022-11-27T07:59:06.636Z,1029.68
2022-11-27T08:13:37.749Z,1029.62
2022-11-27T08:28:54.693Z,1029.48
2022-11-27T08:44:10.670Z,1029.4
2022-11-27T08:59:27.641Z,1029.1
2022-11-27T09:14:44.619Z,1028.96
2022-11-27T09:30:01.688Z,1028.83
2022-11-27T09:45:17.567Z,1028.88
2022-11-27T10:00:33.535Z,1028.77
2022-11-27T10:01:14.495Z,1028.77
2022-11-27T10:15:50.501Z,1028.44
2022-11-27T10:31:07.466Z,1028.22
2022-11-27T10:46:23.483Z,1027.64
2022-11-27T11:01:40.502Z,1027.45
2022-11-27T11:16:57.428Z,1027.2
2022-11-27T11:32:14.412Z,1026.71
2022-11-27T11:47:30.341Z,1026.44
2022-11-27T12:02:46.336Z,1026.26
2022-11-27T12:18:02.270Z,1026.24
2022-11-27T12:33:21.223Z,1025.77
2022-11-27T12:48:37.236Z,1025.41
2022-11-27T13:03:54.145Z,1025
2022-11-27T13:19:11.144Z,1024.72
2022-11-27T13:34:28.125Z,1024.42
2022-11-27T13:49:44.096Z,1024.06
2022-11-27T14:05:00.082Z,1024.25
2022-11-27T14:20:16.045Z,1023.98
2022-11-27T14:21:01.898Z,1023.98
2022-11-27T14:21:47.987Z,1023.98
2022-11-27T14:35:35.007Z,1023.93
2022-11-27T14:36:20.846Z,1023.93
2022-11-27T14:50:52.974Z,1023.84
2022-11-27T15:06:09.954Z,1023.65
2022-11-27T15:21:26.917Z,1023.68
2022-11-27T15:36:43.892Z,1023.54
2022-11-27T15:51:59.871Z,1023.41
2022-11-27T16:07:15.880Z,1023.11
2022-11-27T16:22:31.766Z,1022.85
2022-11-27T16:37:48.817Z,1022.77
2022-11-27T16:53:05.717Z,1022.63
2022-11-27T17:08:22.695Z,1022.69
2022-11-27T17:23:39.639Z,1022.69
2022-11-27T17:38:56.669Z,1022.42
2022-11-27T17:39:36.477Z,1022.42
2022-11-27T17:54:13.573Z,1022.39
2022-11-27T18:09:29.576Z,1022.31
2022-11-27T18:24:45.516Z,1022.2
2022-11-27T18:40:03.539Z,1022.03
2022-11-27T18:55:19.474Z,1021.81
2022-11-27T19:10:36.461Z,1021.76
2022-11-27T19:25:53.403Z,1021.49
2022-11-27T19:41:10.399Z,1021.43
2022-11-27T19:56:26.338Z,1021.33
2022-11-27T20:11:42.356Z,1021.15
2022-11-27T20:26:58.273Z,1021.01
2022-11-27T20:42:15.253Z,1020.74
2022-11-27T20:57:32.253Z,1020.69
2022-11-27T21:12:49.171Z,1020.63
2022-11-27T21:28:05.206Z,1020.47
2022-11-27T21:43:22.135Z,1020.36
2022-11-27T21:58:38.131Z,1020.22
2022-11-27T22:13:54.051Z,1020.33
2022-11-27T22:29:10.072Z,1020.22
2022-11-27T22:44:27.019Z,1020.22
2022-11-27T22:59:43.950Z,1020.24
2022-11-27T23:15:00.925Z,1020.41
2022-11-27T23:30:16.944Z,1020.43
2022-11-27T23:45:33.933Z,1020.27
